Time;durP1;ratioP1;P1;durP2;ratioP2;P2;SDS_P1;SDS_P2;PMS_P1;PMS_P2;Temp;Humidity;BMP_temperature;BMP_pressure;BME280_temperature;BME280_humidity;BME280_pressure;Samples;Min_cycle;Max_cycle;Signal;HPM_P1;HPM_P2
2022/09/01 00:00:00;;;;;;;;;;;;;;;20.36;64.08;101743.81;4423622;32;20360;-67
2022/09/01 00:02:27;;;;;;;;;;;;;;;20.49;63.63;101741.50;4419489;32;20005;-67
2022/09/01 00:04:57;;;;;;;;;;;;;;;20.54;63.32;101738.00;4424028;32;20459;-67
2022/09/01 00:07:23;;;;;;;;;;;;;;;20.47;63.93;101741.22;4419543;32;20407;-67
2022/09/01 00:09:50;;;;;;;;;;;;;;;20.58;63.41;101732.91;4423173;32;20329;-67
2022/09/01 00:12:16;;;;;;;;;;;;;;;20.48;63.72;101739.94;4422712;32;20232;-67
2022/09/01 00:14:42;;;;;;;;;;;;;;;20.61;63.17;101733.97;4421511;32;19995;-67
2022/09/01 00:17:09;;;;;;;;;;;;;;;20.61;63.40;101737.66;4419933;32;19973;-67
2022/09/01 00:19:35;;;;;;;;;;;;;;;20.68;63.25;101736.50;4407419;32;19977;-67
2022/09/01 00:22:01;;;;;;;;;;;;;;;20.65;63.21;101735.41;4422393;32;20393;-68
2022/09/01 00:24:27;;;;;;;;;;;;;;;20.64;63.05;101727.28;4421590;32;19976;-67
2022/09/01 00:26:53;;;;;;;;;;;;;;;20.60;63.66;101733.22;4424132;32;20265;-67
2022/09/01 00:29:19;;;;;;;;;;;;;;;20.56;63.46;101731.81;4423564;32;19957;-67
2022/09/01 00:31:45;;;;;;;;;;;;;;;20.64;63.38;101728.09;4422424;32;20304;-67
2022/09/01 00:34:10;;;;;;;;;;;;;;;20.50;63.68;101728.81;4422290;32;19945;-67
2022/09/01 00:36:36;;;;;;;;;;;;;;;20.46;63.66;101728.19;4422686;32;20634;-68
2022/09/01 00:39:02;;;;;;;;;;;;;;;20.42;63.90;101727.56;4422298;32;19958;-67
2022/09/01 00:41:30;;;;;;;;;;;;;;;20.55;63.16;101730.19;4420085;32;19950;-67
2022/09/01 00:43:58;;;;;;;;;;;;;;;20.58;63.09;101718.59;4425582;32;19946;-67
2022/09/01 00:46:25;;;;;;;;;;;;;;;20.50;63.39;101717.38;4422523;32;20041;-68
2022/09/01 00:48:52;;;;;;;;;;;;;;;20.48;63.58;101719.13;4421188;32;19950;-68
2022/09/01 00:51:18;;;;;;;;;;;;;;;20.47;63.31;101720.41;4422082;32;19965;-68
2022/09/01 00:53:44;;;;;;;;;;;;;;;20.39;63.56;101727.72;4421276;32;19953;-68
2022/09/01 00:56:11;;;;;;;;;;;;;;;20.34;63.67;101722.69;4421142;32;19978;-68
2022/09/01 00:58:37;;;;;;;;;;;;;;;20.34;63.61;101720.59;4422275;32;19996;-68
2022/09/01 01:01:03;;;;;;;;;;;;;;;20.31;63.60;101715.09;4420826;32;19992;-68
2022/09/01 01:03:29;;;;;;;;;;;;;;;20.22;64.05;101713.03;4419774;32;19953;-68
2022/09/01 01:05:56;;;;;;;;;;;;;;;20.19;64.13;101718.94;4422914;32;19962;-68
2022/09/01 01:08:32;;;;;;;;;;;;;;;20.23;63.92;101708.09;4423005;32;20666;-68
2022/09/01 01:11:02;;;;;;;;;;;;;;;20.10;64.41;101716.88;4420047;32;20356;-68
2022/09/01 01:13:30;;;;;;;;;;;;;;;20.12;64.19;101696.38;4422059;32;19946;-68
2022/09/01 01:15:57;;;;;;;;;;;;;;;19.94;64.55;101708.66;4421275;32;20027;-68
2022/09/01 01:18:23;;;;;;;;;;;;;;;20.12;63.71;101702.91;4422023;32;20374;-68
2022/09/01 01:23:52;;;;;;;;;;;;;;;20.19;64.06;101698.94;4420699;32;20008;-68
2022/09/01 01:26:18;;;;;;;;;;;;;;;20.27;63.27;101703.00;4422727;32;19945;-68
2022/09/01 01:28:44;;;;;;;;;;;;;;;20.24;63.60;101704.78;4420797;32;20306;-68
2022/09/01 01:31:11;;;;;;;;;;;;;;;20.20;63.55;101703.34;4422768;32;20302;-68
2022/09/01 01:36:15;;;;;;;;;;;;;;;20.69;62.55;101698.03;3955225;32;15826803;-68
2022/09/01 01:38:42;;;;;;;;;;;;;;;20.69;62.55;101698.03;4436922;32;19950;-68
2022/09/01 01:41:09;;;;;;;;;;;;;;;20.23;63.35;101694.63;4435939;32;20001;-68
2022/09/01 01:43:37;;;;;;;;;;;;;;;20.02;63.87;101697.66;4436089;32;19998;-68
2022/09/01 01:46:04;;;;;;;;;;;;;;;19.92;64.23;101696.91;4436267;32;20311;-68
2022/09/01 01:48:33;;;;;;;;;;;;;;;20.02;63.67;101689.09;4433570;32;19987;-68
2022/09/01 01:51:00;;;;;;;;;;;;;;;19.98;63.91;101692.13;4434975;32;20331;-68
2022/09/01 01:53:25;;;;;;;;;;;;;;;20.05;63.72;101686.06;4434498;32;19989;-68
2022/09/01 01:55:51;;;;;;;;;;;;;;;20.02;63.75;101691.94;4435308;32;19965;-68
2022/09/01 01:58:18;;;;;;;;;;;;;;;19.94;64.26;101679.28;4436028;32;19977;-68
2022/09/01 02:00:46;;;;;;;;;;;;;;;19.97;63.89;101681.19;4436284;32;19953;-68
2022/09/01 02:03:16;;;;;;;;;;;;;;;19.93;63.98;101686.25;4440567;32;20053;-68
2022/09/01 02:05:41;;;;;;;;;;;;;;;19.97;63.85;101687.69;4439025;32;20014;-68
2022/09/01 02:08:08;;;;;;;;;;;;;;;20.02;63.69;101687.03;4439743;32;19985;-68
2022/09/01 02:10:37;;;;;;;;;;;;;;;19.73;64.47;101681.88;4438928;32;20480;-68
2022/09/01 02:13:05;;;;;;;;;;;;;;;19.51;65.06;101694.75;4442526;32;19964;-68
2022/09/01 02:15:34;;;;;;;;;;;;;;;19.66;64.69;101684.28;4441207;32;19962;-68
2022/09/01 02:18:00;;;;;;;;;;;;;;;19.80;64.22;101686.47;4442079;32;19941;-68
2022/09/01 02:20:28;;;;;;;;;;;;;;;19.67;64.79;101686.66;4441583;32;19946;-68
2022/09/01 02:22:54;;;;;;;;;;;;;;;19.72;64.64;101688.06;4438945;32;19973;-68
2022/09/01 02:25:21;;;;;;;;;;;;;;;19.63;64.60;101685.22;4439517;32;19975;-68
2022/09/01 02:27:52;;;;;;;;;;;;;;;19.72;64.62;101694.59;4440002;32;19992;-68
2022/09/01 02:30:18;;;;;;;;;;;;;;;19.67;64.65;101685.88;4438652;32;20001;-68
2022/09/01 02:32:44;;;;;;;;;;;;;;;19.66;64.88;101679.34;4435518;32;19993;-68
2022/09/01 02:35:10;;;;;;;;;;;;;;;19.64;64.79;101690.47;4439734;32;20121;-68
2022/09/01 02:37:38;;;;;;;;;;;;;;;19.56;65.04;101674.13;4440993;32;20010;-68
2022/09/01 02:40:05;;;;;;;;;;;;;;;19.69;64.45;101683.31;4440586;32;20020;-68
2022/09/01 02:42:31;;;;;;;;;;;;;;;19.76;63.93;101674.44;4439567;32;19953;-68
2022/09/01 02:44:57;;;;;;;;;;;;;;;19.74;64.17;101679.81;4441977;32;19949;-68
2022/09/01 02:47:27;;;;;;;;;;;;;;;19.82;64.01;101671.72;4430421;32;19962;-68
2022/09/01 02:49:53;;;;;;;;;;;;;;;19.78;64.10;101678.38;4427855;32;19953;-68
2022/09/01 02:52:19;;;;;;;;;;;;;;;19.82;63.73;101669.62;4425823;32;20269;-68
2022/09/01 02:54:48;;;;;;;;;;;;;;;19.81;64.07;101670.91;4426686;32;20049;-68
2022/09/01 02:57:14;;;;;;;;;;;;;;;19.77;63.89;101671.09;4432855;32;19985;-68
2022/09/01 02:59:41;;;;;;;;;;;;;;;19.80;63.80;101663.63;4428231;32;19969;-68
2022/09/01 03:02:07;;;;;;;;;;;;;;;19.83;63.89;101668.38;4426372;32;19968;-68
2022/09/01 03:04:34;;;;;;;;;;;;;;;19.85;63.72;101665.81;4430554;32;19949;-68
2022/09/01 03:07:00;;;;;;;;;;;;;;;19.80;63.78;101664.41;4424342;32;20034;-68
2022/09/01 03:09:25;;;;;;;;;;;;;;;19.74;63.97;101668.41;4427872;32;19962;-68
2022/09/01 03:11:51;;;;;;;;;;;;;;;19.72;63.95;101657.44;4430890;32;20027;-68
2022/09/01 03:14:17;;;;;;;;;;;;;;;19.59;64.49;101659.72;4428458;32;19986;-68
2022/09/01 03:16:43;;;;;;;;;;;;;;;19.66;64.18;101656.50;4422862;32;19965;-68
2022/09/01 03:19:10;;;;;;;;;;;;;;;19.67;64.13;101660.16;4430616;32;19960;-68
2022/09/01 03:21:39;;;;;;;;;;;;;;;19.60;64.48;101660.47;4427948;32;19953;-68
2022/09/01 03:24:05;;;;;;;;;;;;;;;19.57;64.18;101662.25;4427270;32;19964;-68
2022/09/01 03:26:30;;;;;;;;;;;;;;;19.58;64.59;101657.34;4431050;32;20343;-68
2022/09/01 03:28:56;;;;;;;;;;;;;;;19.43;64.96;101659.25;4431261;32;20004;-68
2022/09/01 03:31:26;;;;;;;;;;;;;;;19.45;64.97;101656.69;4427270;32;19954;-68
2022/09/01 03:33:53;;;;;;;;;;;;;;;19.49;64.81;101651.63;4424944;32;19986;-68
2022/09/01 03:36:18;;;;;;;;;;;;;;;19.41;65.01;101642.59;4427154;32;20005;-68
2022/09/01 03:38:47;;;;;;;;;;;;;;;19.23;65.78;101644.63;4430610;32;20007;-68
2022/09/01 03:41:13;;;;;;;;;;;;;;;19.16;65.94;101642.12;4425865;32;19992;-68
2022/09/01 03:43:39;;;;;;;;;;;;;;;19.22;65.55;101651.63;4426857;32;20009;-68
2022/09/01 03:46:05;;;;;;;;;;;;;;;19.23;65.84;101644.63;4427536;32;19961;-68
2022/09/01 03:48:31;;;;;;;;;;;;;;;19.09;66.21;101648.16;4427408;32;20303;-68
2022/09/01 03:51:00;;;;;;;;;;;;;;;19.17;66.01;101640.84;4427365;32;20001;-68
2022/09/01 03:53:26;;;;;;;;;;;;;;;19.12;66.14;101642.25;4425949;32;19966;-68
2022/09/01 03:55:53;;;;;;;;;;;;;;;19.23;65.93;101642.59;4427213;32;19991;-68
2022/09/01 03:58:19;;;;;;;;;;;;;;;19.28;65.89;101635.47;4430032;32;20001;-68
2022/09/01 04:00:47;;;;;;;;;;;;;;;19.22;65.85;101640.22;4428899;32;19991;-68
2022/09/01 04:03:13;;;;;;;;;;;;;;;19.30;65.71;101632.94;4426459;32;20005;-68
2022/09/01 04:05:42;;;;;;;;;;;;;;;19.42;65.33;101631.97;4430417;32;19957;-68
2022/09/01 04:08:10;;;;;;;;;;;;;;;19.42;64.77;101631.97;4425423;32;20001;-68
2022/09/01 04:10:41;;;;;;;;;;;;;;;19.36;64.86;101633.91;4432041;32;20274;-68
2022/09/01 04:13:10;;;;;;;;;;;;;;;19.43;65.18;101636.41;4431822;32;20012;-68
2022/09/01 04:15:36;;;;;;;;;;;;;;;19.54;64.85;101633.84;4425763;32;20341;-68
2022/09/01 04:18:08;;;;;;;;;;;;;;;19.48;64.70;101624.34;4426509;32;19949;-68
2022/09/01 04:20:46;;;;;;;;;;;;;;;19.41;65.24;101630.37;4429224;32;19973;-68
2022/09/01 04:23:15;;;;;;;;;;;;;;;19.45;65.00;101626.09;4428815;32;19969;-68
2022/09/01 04:25:41;;;;;;;;;;;;;;;19.49;65.28;101621.00;4428662;32;19957;-68
2022/09/01 04:28:13;;;;;;;;;;;;;;;19.60;64.73;101623.34;4430546;32;19953;-68
2022/09/01 04:30:41;;;;;;;;;;;;;;;19.59;64.58;101631.16;4428300;32;20013;-68
2022/09/01 04:33:07;;;;;;;;;;;;;;;19.63;64.61;101622.41;4425653;32;19963;-68
2022/09/01 04:35:39;;;;;;;;;;;;;;;19.65;64.42;101619.87;4428815;32;19953;-68
2022/09/01 04:38:07;;;;;;;;;;;;;;;19.69;63.81;101612.72;4429397;32;19989;-68
2022/09/01 04:40:37;;;;;;;;;;;;;;;19.61;64.63;101619.25;4425024;32;20011;-68
2022/09/01 04:43:03;;;;;;;;;;;;;;;19.73;64.02;101615.41;4427018;32;19950;-68
2022/09/01 04:45:30;;;;;;;;;;;;;;;19.83;63.74;101611.25;4428460;32;19953;-68
2022/09/01 04:47:58;;;;;;;;;;;;;;;19.64;64.32;101612.56;4425877;32;20015;-68
2022/09/01 04:50:24;;;;;;;;;;;;;;;19.55;64.84;101607.66;4429595;32;20017;-68
2022/09/01 04:52:52;;;;;;;;;;;;;;;19.56;64.89;101611.31;4427958;32;19957;-68
2022/09/01 04:55:18;;;;;;;;;;;;;;;19.41;65.17;101607.53;4433230;32;19980;-68
2022/09/01 04:57:46;;;;;;;;;;;;;;;19.60;64.64;101611.94;4426215;32;19958;-68
2022/09/01 05:00:21;;;;;;;;;;;;;;;19.53;65.13;101615.12;4426749;32;20379;-68
2022/09/01 05:02:50;;;;;;;;;;;;;;;19.58;64.86;101612.41;4426975;32;19996;-68
2022/09/01 05:05:16;;;;;;;;;;;;;;;19.65;64.66;101609.25;4431626;32;19957;-68
2022/09/01 05:07:42;;;;;;;;;;;;;;;19.64;64.70;101607.63;4430374;32;19964;-68
2022/09/01 05:10:08;;;;;;;;;;;;;;;19.64;64.86;101604.00;4430572;32;20755;-68
2022/09/01 05:12:34;;;;;;;;;;;;;;;19.64;65.01;101606.87;4423291;32;19968;-68
2022/09/01 05:15:05;;;;;;;;;;;;;;;19.63;64.69;101608.12;4426585;32;19997;-68
2022/09/01 05:17:32;;;;;;;;;;;;;;;19.69;64.72;101607.00;4426163;32;19976;-68
2022/09/01 05:19:59;;;;;;;;;;;;;;;19.74;64.81;101605.56;4424219;32;19992;-68
2022/09/01 05:22:25;;;;;;;;;;;;;;;19.76;64.95;101612.38;4426757;32;19988;-68
2022/09/01 05:24:51;;;;;;;;;;;;;;;19.72;64.74;101606.03;4428383;32;19949;-68
2022/09/01 05:27:19;;;;;;;;;;;;;;;19.73;64.74;101607.63;4425584;32;19999;-68
2022/09/01 05:29:45;;;;;;;;;;;;;;;19.71;64.47;101600.81;4427171;32;20077;-68
2022/09/01 05:32:14;;;;;;;;;;;;;;;19.51;65.09;101595.63;4425433;32;20055;-67
2022/09/01 05:34:41;;;;;;;;;;;;;;;19.61;65.24;101604.97;4429757;32;19965;-68
2022/09/01 05:37:08;;;;;;;;;;;;;;;19.50;65.52;101596.91;4431113;32;20028;-68
2022/09/01 05:39:35;;;;;;;;;;;;;;;19.53;65.42;101600.84;4428816;32;19964;-68
2022/09/01 05:42:00;;;;;;;;;;;;;;;19.61;65.51;101590.69;4427696;32;19983;-68
2022/09/01 05:44:26;;;;;;;;;;;;;;;19.69;65.41;101595.56;4425778;32;20389;-68
2022/09/01 05:46:54;;;;;;;;;;;;;;;19.64;65.20;101589.72;4425152;32;19950;-68
2022/09/01 05:49:20;;;;;;;;;;;;;;;19.54;65.58;101593.88;4426903;32;20711;-68
2022/09/01 05:51:48;;;;;;;;;;;;;;;19.62;65.53;101589.41;4427799;32;19992;-68
2022/09/01 05:54:17;;;;;;;;;;;;;;;19.72;65.67;101590.97;4426956;32;20020;-68
2022/09/01 05:56:43;;;;;;;;;;;;;;;19.67;65.85;101588.78;4425529;32;19949;-68
2022/09/01 05:59:10;;;;;;;;;;;;;;;19.81;64.93;101593.78;4426694;32;19953;-68
2022/09/01 06:01:39;;;;;;;;;;;;;;;19.60;65.69;101591.94;4425986;32;19949;-68
2022/09/01 06:04:06;;;;;;;;;;;;;;;19.67;65.48;101585.91;4423177;32;20433;-68
2022/09/01 06:06:37;;;;;;;;;;;;;;;19.72;65.38;101594.62;4428605;32;20463;-68
2022/09/01 06:09:06;;;;;;;;;;;;;;;19.84;64.86;101598.53;4427836;32;20019;-67
2022/09/01 06:11:32;;;;;;;;;;;;;;;19.85;64.79;101597.25;4423413;32;19953;-67
2022/09/01 06:13:58;;;;;;;;;;;;;;;19.73;64.73;101601.91;4427329;32;19995;-67
2022/09/01 06:16:24;;;;;;;;;;;;;;;19.69;65.18;101600.50;4427530;32;20228;-67
2022/09/01 06:18:52;;;;;;;;;;;;;;;19.68;64.59;101598.91;4423501;32;19981;-67
2022/09/01 06:21:20;;;;;;;;;;;;;;;19.62;65.31;101595.94;4424188;32;20001;-67
2022/09/01 06:23:47;;;;;;;;;;;;;;;19.52;65.22;101596.44;4429987;32;20341;-67
2022/09/01 06:26:16;;;;;;;;;;;;;;;19.42;66.06;101594.88;4434014;32;19980;-68
2022/09/01 06:28:42;;;;;;;;;;;;;;;19.61;65.55;101596.41;4436016;32;20354;-68
2022/09/01 06:31:08;;;;;;;;;;;;;;;19.40;66.15;101600.25;4422175;32;19993;-68
2022/09/01 06:33:34;;;;;;;;;;;;;;;19.52;65.79;101597.19;4430092;32;19968;-68
2022/09/01 06:36:02;;;;;;;;;;;;;;;19.45;65.96;101599.59;4429646;32;20027;-68
2022/09/01 06:38:28;;;;;;;;;;;;;;;19.50;65.96;101596.91;4429618;32;19985;-68
2022/09/01 06:41:03;;;;;;;;;;;;;;;19.62;65.15;101603.69;4431789;32;19980;-68
2022/09/01 06:43:29;;;;;;;;;;;;;;;19.81;64.97;101608.06;4419362;32;20378;-68
2022/09/01 06:45:55;;;;;;;;;;;;;;;19.90;64.66;101598.66;4431666;32;19988;-68
2022/09/01 06:48:22;;;;;;;;;;;;;;;20.09;64.26;101603.03;4431423;32;19976;-68
2022/09/01 06:50:51;;;;;;;;;;;;;;;20.13;64.25;101606.53;4431890;32;20327;-68
2022/09/01 06:53:17;;;;;;;;;;;;;;;20.27;63.42;101605.81;4434275;32;20504;-68
2022/09/01 06:55:45;;;;;;;;;;;;;;;20.27;63.62;101600.09;4429285;32;19964;-68
2022/09/01 06:58:14;;;;;;;;;;;;;;;20.39;63.13;101599.87;4435860;32;20012;-68
2022/09/01 07:00:41;;;;;;;;;;;;;;;20.50;62.60;101597.28;4434902;32;19962;-67
2022/09/01 07:03:09;;;;;;;;;;;;;;;20.73;61.76;101595.66;4432342;32;20329;-67
2022/09/01 07:05:43;;;;;;;;;;;;;;;20.69;61.80;101597.91;4430541;32;20003;-67
2022/09/01 07:08:12;;;;;;;;;;;;;;;20.69;61.89;101597.91;4429049;32;20383;-67
2022/09/01 07:10:39;;;;;;;;;;;;;;;20.76;61.78;101600.41;4431248;32;20279;-67
2022/09/01 07:13:06;;;;;;;;;;;;;;;20.92;61.05;101605.66;4433975;32;20069;-67
2022/09/01 07:15:32;;;;;;;;;;;;;;;20.74;61.35;101603.75;4430825;32;19965;-67
2022/09/01 07:17:58;;;;;;;;;;;;;;;20.80;60.86;101598.16;4430061;32;20015;-67
2022/09/01 07:20:25;;;;;;;;;;;;;;;20.75;60.67;101602.50;4429717;32;19965;-68
2022/09/01 07:22:52;;;;;;;;;;;;;;;20.86;60.66;101601.94;4431083;32;19954;-67
2022/09/01 07:25:19;;;;;;;;;;;;;;;20.95;60.25;101602.66;4433717;32;19992;-67
2022/09/01 07:27:49;;;;;;;;;;;;;;;21.11;60.04;101601.44;4430174;32;19967;-67
2022/09/01 07:30:16;;;;;;;;;;;;;;;21.13;60.29;101604.56;4431490;32;20372;-67
2022/09/01 07:32:42;;;;;;;;;;;;;;;21.27;59.22;101604.59;4429378;32;19964;-67
2022/09/01 07:35:08;;;;;;;;;;;;;;;21.13;59.56;101613.16;4429559;32;20054;-67
2022/09/01 07:37:36;;;;;;;;;;;;;;;21.18;59.48;101606.75;4430523;32;19977;-67
2022/09/01 07:40:05;;;;;;;;;;;;;;;21.17;59.25;101605.19;4424873;32;20284;-67
2022/09/01 07:42:31;;;;;;;;;;;;;;;21.27;59.09;101615.25;4430688;32;19976;-67
2022/09/01 07:44:57;;;;;;;;;;;;;;;21.39;58.41;101608.47;4427746;32;19945;-67
2022/09/01 07:47:22;;;;;;;;;;;;;;;21.28;58.81;101611.91;4428606;32;19968;-67
2022/09/01 07:49:49;;;;;;;;;;;;;;;21.42;58.21;101602.53;4424933;32;20012;-68
2022/09/01 07:52:14;;;;;;;;;;;;;;;21.49;58.00;101607.06;4419734;32;19981;-69
2022/09/01 07:54:41;;;;;;;;;;;;;;;21.56;57.27;101603.81;4416315;32;20328;-67
2022/09/01 07:57:06;;;;;;;;;;;;;;;21.33;57.82;101601.84;4419472;32;19954;-68
2022/09/01 07:59:34;;;;;;;;;;;;;;;21.54;57.02;101603.53;4418489;32;20318;-68
2022/09/01 08:02:00;;;;;;;;;;;;;;;21.58;56.59;101595.53;4408126;32;19997;-66
2022/09/01 08:04:27;;;;;;;;;;;;;;;21.76;56.10;101600.28;4417728;32;19953;-66
2022/09/01 08:06:54;;;;;;;;;;;;;;;21.77;55.10;101596.13;4417500;32;20403;-66
2022/09/01 08:09:20;;;;;;;;;;;;;;;21.95;54.25;101599.56;4419901;32;19971;-68
2022/09/01 08:11:46;;;;;;;;;;;;;;;22.14;53.68;101591.50;4420698;32;19986;-68
2022/09/01 08:14:11;;;;;;;;;;;;;;;22.28;53.21;101597.22;4426168;32;19949;-68
2022/09/01 08:16:37;;;;;;;;;;;;;;;22.09;53.33;101592.22;4418198;32;19950;-66
2022/09/01 08:19:03;;;;;;;;;;;;;;;22.05;52.84;101598.16;4416470;32;19962;-69
2022/09/01 08:21:28;;;;;;;;;;;;;;;21.93;52.54;101587.78;4419438;32;19993;-67
2022/09/01 08:23:55;;;;;;;;;;;;;;;22.15;51.76;101596.75;4418280;32;20004;-68
2022/09/01 08:26:22;;;;;;;;;;;;;;;22.26;51.72;101591.19;4414959;32;20829;-69
2022/09/01 08:28:48;;;;;;;;;;;;;;;22.23;51.38;101592.19;4419467;32;20428;-68
2022/09/01 08:31:16;;;;;;;;;;;;;;;22.47;49.84;101586.25;4415653;32;19958;-68
2022/09/01 08:33:42;;;;;;;;;;;;;;;22.62;49.56;101587.00;4418906;32;19954;-67
2022/09/01 08:36:09;;;;;;;;;;;;;;;22.80;49.25;101586.72;4416176;32;19968;-67
2022/09/01 08:38:34;;;;;;;;;;;;;;;23.07;48.52;101589.13;4416024;32;19960;-69
2022/09/01 08:41:02;;;;;;;;;;;;;;;23.35;47.88;101587.38;4419478;32;19993;-68
2022/09/01 08:43:49;;;;;;;;;;;;;;;23.81;46.19;101578.63;4419510;32;19958;-67
2022/09/01 08:48:53;;;;;;;;;;;;;;;25.09;43.69;101594.06;3961295;31;15720048;-68
2022/09/01 08:54:00;;;;;;;;;;;;;;;25.72;42.38;101602.31;3954135;32;15723655;-69
2022/09/01 08:56:26;;;;;;;;;;;;;;;25.72;42.38;101602.31;4432736;32;20014;-69
2022/09/01 08:58:52;;;;;;;;;;;;;;;25.62;41.31;101590.25;4432712;32;19973;-68
2022/09/01 09:01:26;;;;;;;;;;;;;;;26.01;40.24;101593.16;4433003;32;20331;-70
2022/09/01 09:04:07;;;;;;;;;;;;;;;26.32;39.63;101587.09;4431192;32;20418;-69
2022/09/01 09:09:09;;;;;;;;;;;;;;;27.60;37.18;101590.94;3953286;32;15723408;-69
2022/09/01 09:11:54;;;;;;;;;;;;;;;27.60;37.18;101590.94;4434396;32;20324;-68
2022/09/01 09:14:34;;;;;;;;;;;;;;;27.44;36.85;101583.97;4434964;32;20376;-68
2022/09/01 09:17:00;;;;;;;;;;;;;;;27.61;36.17;101583.84;4431261;32;19957;-68
2022/09/01 09:22:04;;;;;;;;;;;;;;;27.64;35.42;101586.44;3956181;32;15722464;-70
2022/09/01 09:27:05;;;;;;;;;;;;;;;27.01;36.71;101577.91;3953399;32;15722309;-67
2022/09/01 09:29:31;;;;;;;;;;;;;;;27.01;36.71;101577.91;4426981;32;19989;-66
2022/09/01 09:32:01;;;;;;;;;;;;;;;26.70;36.96;101574.66;4432778;32;20185;-66
2022/09/01 09:34:31;;;;;;;;;;;;;;;26.83;37.02;101571.97;4430404;32;19992;-67
2022/09/01 09:37:16;;;;;;;;;;;;;;;27.16;35.54;101558.09;4430034;32;19965;-67
2022/09/01 09:39:42;;;;;;;;;;;;;;;27.21;35.73;101565.16;4427104;32;20012;-68
2022/09/01 09:42:10;;;;;;;;;;;;;;;27.62;34.38;101550.72;4428808;32;19949;-68
2022/09/01 09:44:42;;;;;;;;;;;;;;;28.10;33.27;101556.63;4426581;32;20013;-67
2022/09/01 09:47:09;;;;;;;;;;;;;;;28.34;32.52;101553.69;4429155;32;19993;-67
2022/09/01 09:49:35;;;;;;;;;;;;;;;28.28;32.70;101553.78;4428410;32;19972;-67
2022/09/01 09:54:38;;;;;;;;;;;;;;;28.17;33.02;101568.38;3960545;32;15724576;-67
2022/09/01 09:57:18;;;;;;;;;;;;;;;28.17;33.02;101568.38;4434435;32;20282;-67
2022/09/01 10:02:25;;;;;;;;;;;;;;;27.27;33.94;101557.28;3951794;32;15723470;-69
2022/09/01 10:04:51;;;;;;;;;;;;;;;27.27;33.94;101557.28;4436743;32;19957;-68
2022/09/01 10:10:02;;;;;;;;;;;;;;;28.22;32.31;101552.28;3951795;32;15722473;-69
2022/09/01 10:12:29;;;;;;;;;;;;;;;28.22;32.31;101552.28;4434678;32;20294;-68
2022/09/01 10:17:40;;;;;;;;;;;;;;;28.63;30.78;101556.53;3953323;32;15723630;-68
2022/09/01 10:20:11;;;;;;;;;;;;;;;28.63;30.78;101556.53;4431856;32;19986;-68
2022/09/01 10:22:38;;;;;;;;;;;;;;;28.46;31.30;101553.06;4430940;32;20391;-66
2022/09/01 10:25:06;;;;;;;;;;;;;;;28.85;30.34;101546.78;4432621;32;20326;-67
2022/09/01 10:27:34;;;;;;;;;;;;;;;29.49;29.75;101544.81;4431882;32;20023;-68
2022/09/01 10:32:46;;;;;;;;;;;;;;;30.41;28.51;101550.31;3959151;32;15728313;-68
2022/09/01 10:35:17;;;;;;;;;;;;;;;30.41;28.51;101550.31;4437062;32;19969;-68
2022/09/01 10:37:43;;;;;;;;;;;;;;;30.50;28.37;101541.13;4437194;32;19957;-69
2022/09/01 10:40:32;;;;;;;;;;;;;;;31.13;27.39;101534.22;4434777;32;20259;-69
2022/09/01 10:42:59;;;;;;;;;;;;;;;31.43;27.04;101536.69;4437914;32;19972;-67
2022/09/01 10:45:33;;;;;;;;;;;;;;;31.41;27.09;101548.91;4433861;32;19953;-69
2022/09/01 10:48:19;;;;;;;;;;;;;;;31.04;27.67;101531.00;4440572;32;19957;-68
2022/09/01 10:50:46;;;;;;;;;;;;;;;31.35;27.26;101532.94;4437111;32;20003;-68
2022/09/01 10:53:32;;;;;;;;;;;;;;;30.93;27.80;101528.34;4435775;32;19956;-68
2022/09/01 10:56:01;;;;;;;;;;;;;;;30.86;27.78;101518.19;4437037;32;20371;-68
2022/09/01 11:01:02;;;;;;;;;;;;;;;31.48;27.14;101527.06;3953267;32;15722635;-68
2022/09/01 11:06:06;;;;;;;;;;;;;;;30.50;27.87;101517.87;3951771;32;15722554;-69
2022/09/01 11:11:27;;;;;;;;;;;;;;;30.35;28.00;101505.28;3972460;31;15720732;-69
2022/09/01 11:13:55;;;;;;;;;;;;;;;30.35;28.00;101505.28;4461777;32;19980;-68
2022/09/01 11:16:30;;;;;;;;;;;;;;;30.20;27.67;101500.03;4462491;32;20429;-67
2022/09/01 11:19:15;;;;;;;;;;;;;;;30.55;26.98;101496.66;4459115;32;20038;-68
2022/09/01 11:21:41;;;;;;;;;;;;;;;31.33;26.67;101504.41;4456934;32;19996;-68
2022/09/01 11:24:26;;;;;;;;;;;;;;;32.05;25.90;101496.72;4459471;32;20000;-68
2022/09/01 11:26:52;;;;;;;;;;;;;;;32.28;25.71;101486.00;4460080;32;19953;-68
2022/09/01 11:29:38;;;;;;;;;;;;;;;32.36;25.32;101483.94;4461668;32;19967;-68
2022/09/01 11:32:04;;;;;;;;;;;;;;;32.85;24.76;101486.69;4457387;32;19960;-68
2022/09/01 11:34:30;;;;;;;;;;;;;;;32.64;24.68;101493.41;4459757;32;19960;-67
2022/09/01 11:36:59;;;;;;;;;;;;;;;32.26;25.48;101489.50;4455692;32;19977;-68
2022/09/01 11:47:39;;;;;;;;;;;;;;;32.93;24.78;101475.84;3951954;32;15720886;-68
2022/09/01 11:50:06;;;;;;;;;;;;;;;32.93;24.78;101475.84;4435411;32;19968;-68
2022/09/01 11:52:34;;;;;;;;;;;;;;;32.31;25.63;101465.22;4436651;32;20339;-68
2022/09/01 11:55:00;;;;;;;;;;;;;;;31.87;25.75;101457.00;4436751;32;20003;-68
2022/09/01 12:00:08;;;;;;;;;;;;;;;32.07;25.89;101462.78;3953332;32;15724533;-69
2022/09/01 12:02:34;;;;;;;;;;;;;;;32.04;25.62;101461.00;4427261;32;20358;-70
2022/09/01 12:05:01;;;;;;;;;;;;;;;32.42;25.43;101462.03;4430741;32;20339;-68
2022/09/01 12:13:00;;;;;;;;;;;;;;;32.05;25.82;101441.38;3953120;32;15724607;-67
2022/09/01 12:15:26;;;;;;;;;;;;;;;32.05;25.82;101441.38;4433802;32;19988;-66
2022/09/01 12:17:52;;;;;;;;;;;;;;;31.91;26.39;101449.44;4429982;32;20720;-67
2022/09/01 12:23:02;;;;;;;;;;;;;;;32.12;26.21;101447.25;3970932;31;15826513;-67
2022/09/01 12:25:29;;;;;;;;;;;;;;;32.12;26.21;101447.25;4457583;32;19992;-68
2022/09/01 12:27:56;;;;;;;;;;;;;;;32.34;25.67;101442.94;4455734;32;19980;-69
2022/09/01 12:30:22;;;;;;;;;;;;;;;32.60;25.03;101452.19;4460197;32;19949;-69
2022/09/01 12:32:48;;;;;;;;;;;;;;;33.09;24.60;101439.53;4457886;32;19980;-69
2022/09/01 12:35:17;;;;;;;;;;;;;;;32.49;25.01;101443.78;4460493;32;19961;-68
2022/09/01 12:37:42;;;;;;;;;;;;;;;32.21;25.45;101440.91;4457444;32;19972;-70
2022/09/01 12:40:20;;;;;;;;;;;;;;;31.81;25.74;101427.22;4458367;32;19993;-69
2022/09/01 12:42:50;;;;;;;;;;;;;;;31.22;26.37;101443.56;4457994;32;20044;-70
2022/09/01 12:45:34;;;;;;;;;;;;;;;31.11;26.83;101438.06;4460593;32;20389;-68
2022/09/01 12:48:00;;;;;;;;;;;;;;;30.98;27.10;101441.00;4460853;32;19960;-69
2022/09/01 12:53:12;;;;;;;;;;;;;;;32.35;25.24;101424.91;3952326;32;15727492;-69
2022/09/01 12:55:38;;;;;;;;;;;;;;;32.35;25.24;101424.91;4432036;32;20111;-69
2022/09/01 12:58:04;;;;;;;;;;;;;;;31.82;26.10;101432.50;4437466;32;19963;-68
2022/09/01 13:00:31;;;;;;;;;;;;;;;31.74;26.39;101434.56;4435339;32;20472;-69
2022/09/01 13:05:39;;;;;;;;;;;;;;;31.98;26.44;101415.91;3968155;32;15726654;-68
2022/09/01 13:08:07;;;;;;;;;;;;;;;31.98;26.44;101415.91;4458434;32;19959;-69
2022/09/01 13:10:45;;;;;;;;;;;;;;;31.68;26.68;101409.84;4457702;32;19997;-68
2022/09/01 13:13:11;;;;;;;;;;;;;;;31.48;26.90;101407.78;4446688;32;19972;-68
2022/09/01 13:15:38;;;;;;;;;;;;;;;31.52;26.53;101408.97;4458858;32;20691;-68
2022/09/01 13:18:04;;;;;;;;;;;;;;;32.28;25.66;101408.09;4457852;32;19956;-69
2022/09/01 13:20:30;;;;;;;;;;;;;;;33.23;24.21;101406.69;4457041;32;20019;-68
2022/09/01 13:22:56;;;;;;;;;;;;;;;33.17;24.12;101396.56;4455496;32;20353;-69
2022/09/01 13:25:23;;;;;;;;;;;;;;;32.71;24.51;101400.72;4458212;32;20000;-68
2022/09/01 13:27:48;;;;;;;;;;;;;;;32.90;24.34;101396.16;4460678;32;19983;-68
2022/09/01 13:30:15;;;;;;;;;;;;;;;33.47;23.73;101382.03;4462377;32;20342;-70
2022/09/01 13:32:43;;;;;;;;;;;;;;;33.64;23.53;101376.34;4459637;32;20324;-68
2022/09/01 13:35:09;;;;;;;;;;;;;;;33.16;23.87;101389.19;4458954;32;19980;-68
2022/09/01 13:37:35;;;;;;;;;;;;;;;32.46;24.28;101380.81;4458226;32;19993;-69
2022/09/01 13:40:00;;;;;;;;;;;;;;;31.85;25.10;101376.06;4456890;32;20001;-68
2022/09/01 13:42:26;;;;;;;;;;;;;;;32.70;24.35;101373.72;4460755;32;19944;-69